Logan Cache Airport Logan US
ICAO: KLGU
IATA: LGU
Category: Medium
Scheduled Services: No

Elevation: 4457 ft
TransAlt. 18000 ft.

Airport Communications:
ASOS:135.275
CEDAR CITY RDO:122.2
CTAF/UNICOM:122.8

KLGU Zoom In..

Runways:

(A) RW 10 length 5005 ft width 75 ft
---- / hdg 108

(B) RW 17 length 9010 ft width 100 ft
ILS 109.15 / hdg 169

(C) RW 28 length 5005 ft width 75 ft
---- / hdg 288

(D) RW 35 length 9010 ft width 100 ft
---- / hdg 349

Location; KLGU
Day. 21 / Time. 23.51 Zulu
* Altimeter: 30.22
* Temperature: -01° c. -30.2°f.
* Wind from: 220° Speed 05 kn.
Dewpoint: -07° c.
Visibility: 10 Statute Miles.
Clouds: Broken 5500 ft.

KLGU 212351Z AUTO 22005KT 10SM BKN055 M01/M07 A3022 RMK AO2 SLP259 T10061067 10017 21011 53009 $


Wind From 220°
Speed 05 kn.

jpsM music video
CHECK IT OUT

jpsM - It Moves..

 
jpsmedia.com for Web Design  worldairports.se 2018   terms of use